createdAt,value
2022-12-22T00:01:12.827Z,25
2022-12-22T00:03:43.865Z,21
2022-12-22T00:06:14.018Z,25
2022-12-22T00:08:44.233Z,24
2022-12-22T00:11:14.375Z,23
2022-12-22T00:13:44.956Z,22
2022-12-22T00:16:15.351Z,25
2022-12-22T00:18:45.283Z,28
2022-12-22T00:21:15.646Z,21
2022-12-22T00:23:45.973Z,23
2022-12-22T00:26:16.326Z,26
2022-12-22T00:28:46.585Z,20
2022-12-22T00:31:17.000Z,21
2022-12-22T00:33:47.489Z,26
2022-12-22T00:36:17.839Z,23
2022-12-22T00:38:47.836Z,22
2022-12-22T00:41:18.402Z,25
2022-12-22T00:43:48.736Z,23
2022-12-22T00:46:19.430Z,21
2022-12-22T00:48:49.687Z,23
2022-12-22T00:51:20.611Z,24
2022-12-22T00:53:51.157Z,22
2022-12-22T00:56:21.580Z,24
2022-12-22T00:58:52.042Z,27
2022-12-22T01:01:22.491Z,25
2022-12-22T01:03:52.756Z,23
2022-12-22T01:06:22.938Z,21
2022-12-22T01:08:53.566Z,23
2022-12-22T01:11:23.822Z,22
2022-12-22T01:13:53.881Z,26
2022-12-22T01:16:24.601Z,26
2022-12-22T01:18:54.780Z,22
2022-12-22T01:21:25.635Z,26
2022-12-22T01:23:55.947Z,21
2022-12-22T01:26:26.418Z,25
2022-12-22T01:28:56.845Z,22
2022-12-22T01:31:27.204Z,27
2022-12-22T01:33:57.480Z,24
2022-12-22T01:36:28.044Z,27
2022-12-22T01:38:58.370Z,25
2022-12-22T01:41:28.655Z,20
2022-12-22T01:43:58.708Z,29
2022-12-22T01:46:29.327Z,27
2022-12-22T01:48:59.907Z,23
2022-12-22T01:51:30.537Z,27
2022-12-22T01:54:00.876Z,22
2022-12-22T01:56:31.456Z,24
2022-12-22T01:59:01.900Z,24
2022-12-22T02:01:31.894Z,26
2022-12-22T02:04:02.055Z,27
2022-12-22T02:06:32.617Z,24
2022-12-22T02:09:03.171Z,25
2022-12-22T02:11:33.490Z,27
2022-12-22T02:14:03.920Z,27
2022-12-22T02:16:34.242Z,23
2022-12-22T02:19:04.635Z,29
2022-12-22T02:21:35.248Z,19
2022-12-22T02:24:05.565Z,23
2022-12-22T02:26:36.236Z,30
2022-12-22T02:29:06.723Z,23
2022-12-22T02:31:37.099Z,25
2022-12-22T02:34:07.574Z,25
2022-12-22T02:36:37.866Z,29
2022-12-22T02:39:07.986Z,31
2022-12-22T02:41:38.477Z,26
2022-12-22T02:44:09.035Z,28
2022-12-22T02:46:39.406Z,25
2022-12-22T02:49:10.010Z,25
2022-12-22T02:51:40.222Z,28
2022-12-22T02:54:10.281Z,27
2022-12-22T02:56:40.445Z,25
2022-12-22T02:59:11.054Z,30
2022-12-22T03:01:41.921Z,27
2022-12-22T03:04:12.576Z,28
2022-12-22T03:06:43.167Z,25
2022-12-22T03:09:13.848Z,22
2022-12-22T03:11:44.150Z,23
2022-12-22T03:14:15.012Z,22
2022-12-22T03:16:45.780Z,26
2022-12-22T03:19:15.763Z,25
2022-12-22T03:21:46.176Z,27
2022-12-22T03:24:16.855Z,25
2022-12-22T03:26:47.456Z,22
2022-12-22T03:29:18.290Z,23
2022-12-22T03:31:48.979Z,25
2022-12-22T03:34:18.937Z,24
2022-12-22T03:36:49.828Z,25
2022-12-22T03:39:20.029Z,33
2022-12-22T03:41:50.924Z,24
2022-12-22T03:44:21.520Z,24
2022-12-22T03:46:52.462Z,28
2022-12-22T03:49:22.392Z,24
2022-12-22T03:51:52.711Z,27
2022-12-22T03:54:23.106Z,30
2022-12-22T03:56:53.466Z,24
2022-12-22T03:59:23.886Z,25
2022-12-22T04:01:54.650Z,23
2022-12-22T04:04:24.822Z,21
2022-12-22T04:06:55.440Z,20
2022-12-22T04:09:25.405Z,24
2022-12-22T04:11:56.269Z,28
2022-12-22T04:14:33.172Z,24
2022-12-22T04:16:57.225Z,27
2022-12-22T04:19:27.527Z,26
2022-12-22T04:21:58.067Z,28
2022-12-22T04:24:28.653Z,30
2022-12-22T04:26:59.091Z,27
2022-12-22T04:29:29.140Z,25
2022-12-22T04:32:00.193Z,25
2022-12-22T04:34:30.265Z,25
2022-12-22T04:37:09.867Z,24
2022-12-22T04:39:30.583Z,21
2022-12-22T04:42:01.418Z,25
2022-12-22T04:44:32.219Z,26
2022-12-22T04:47:02.279Z,24
2022-12-22T04:49:33.140Z,28
2022-12-22T04:52:03.689Z,26
2022-12-22T04:54:34.300Z,30
2022-12-22T04:57:05.250Z,26
2022-12-22T04:59:35.465Z,30
2022-12-22T05:02:05.854Z,23
2022-12-22T05:04:36.130Z,31
2022-12-22T05:07:06.322Z,32
2022-12-22T05:09:36.728Z,30
2022-12-22T05:12:07.344Z,27
2022-12-22T05:14:37.655Z,28
2022-12-22T05:17:08.050Z,30
2022-12-22T05:19:38.228Z,28
2022-12-22T05:22:08.995Z,31
2022-12-22T05:24:39.780Z,33
2022-12-22T05:27:09.961Z,33
2022-12-22T05:29:40.147Z,28
2022-12-22T05:32:10.801Z,32
2022-12-22T05:34:41.086Z,30
2022-12-22T05:37:11.646Z,30
2022-12-22T05:39:41.927Z,33
2022-12-22T05:42:12.475Z,34
2022-12-22T05:44:43.078Z,29
2022-12-22T05:47:13.855Z,34
2022-12-22T05:49:44.027Z,30
2022-12-22T05:52:14.297Z,31
2022-12-22T05:54:45.107Z,28
2022-12-22T05:57:15.400Z,31
2022-12-22T05:59:45.908Z,29
2022-12-22T06:02:16.471Z,30
2022-12-22T06:04:46.649Z,34
2022-12-22T06:07:17.296Z,26
2022-12-22T06:09:48.105Z,31
2022-12-22T06:12:18.692Z,29
2022-12-22T06:14:48.907Z,32
2022-12-22T06:17:19.040Z,30
2022-12-22T06:19:49.253Z,29
2022-12-22T06:22:19.382Z,39
2022-12-22T06:24:49.506Z,36
2022-12-22T06:27:20.135Z,30
2022-12-22T06:29:50.558Z,34
2022-12-22T06:32:20.711Z,34
2022-12-22T06:34:50.792Z,38
2022-12-22T06:37:21.376Z,36
2022-12-22T06:39:52.151Z,28
2022-12-22T06:42:22.490Z,30
2022-12-22T06:44:52.545Z,41
2022-12-22T06:47:23.404Z,37
2022-12-22T06:49:53.913Z,34
2022-12-22T06:52:24.528Z,39
2022-12-22T06:54:55.077Z,37
2022-12-22T06:57:25.662Z,36
2022-12-22T06:59:57.978Z,34
2022-12-22T07:02:26.779Z,34
2022-12-22T07:04:57.555Z,32
2022-12-22T07:07:28.358Z,37
2022-12-22T07:09:59.244Z,31
2022-12-22T07:12:30.073Z,33
2022-12-22T07:15:00.306Z,36
2022-12-22T07:17:31.028Z,33
2022-12-22T07:20:01.525Z,32
2022-12-22T07:22:31.593Z,31
2022-12-22T07:25:02.442Z,31
2022-12-22T07:27:33.228Z,32
2022-12-22T07:30:03.591Z,31
2022-12-22T07:32:34.513Z,33
2022-12-22T07:35:06.079Z,28
2022-12-22T07:37:35.526Z,34
2022-12-22T07:40:06.078Z,30
2022-12-22T07:42:36.414Z,31
2022-12-22T07:45:07.161Z,30
2022-12-22T07:47:37.927Z,29
2022-12-22T07:50:08.675Z,32
2022-12-22T07:52:39.146Z,26
2022-12-22T07:55:09.376Z,26
2022-12-22T07:57:39.934Z,28
2022-12-22T08:00:10.207Z,30
2022-12-22T08:02:40.640Z,26
2022-12-22T08:05:10.830Z,27
2022-12-22T08:07:40.866Z,36
2022-12-22T08:10:11.315Z,29
2022-12-22T08:12:42.097Z,28
2022-12-22T08:15:12.531Z,24
2022-12-22T08:17:43.311Z,27
2022-12-22T08:20:13.354Z,26
2022-12-22T08:22:43.998Z,28
2022-12-22T08:25:14.490Z,24
2022-12-22T08:27:45.031Z,28
2022-12-22T08:30:15.775Z,35
2022-12-22T08:32:46.235Z,35
2022-12-22T08:35:17.071Z,33
2022-12-22T08:37:47.677Z,27
2022-12-22T08:40:18.559Z,29
2022-12-22T08:42:49.215Z,28
2022-12-22T08:45:19.932Z,25
2022-12-22T08:47:50.178Z,29
2022-12-22T08:50:20.275Z,28
2022-12-22T08:52:50.916Z,24
2022-12-22T08:55:21.665Z,32
2022-12-22T08:57:55.965Z,29
2022-12-22T09:00:22.794Z,30
2022-12-22T09:02:53.003Z,27
2022-12-22T09:05:23.561Z,25
2022-12-22T09:07:54.121Z,30
2022-12-22T09:10:24.643Z,29
2022-12-22T09:12:54.697Z,25
2022-12-22T09:15:25.173Z,30
2022-12-22T09:17:55.954Z,27
2022-12-22T09:20:26.810Z,32
2022-12-22T09:22:57.582Z,27
2022-12-22T09:25:27.901Z,33
2022-12-22T09:27:58.243Z,29
2022-12-22T09:30:28.870Z,30
2022-12-22T09:32:59.202Z,35
2022-12-22T09:35:29.619Z,30
2022-12-22T09:38:00.465Z,36
2022-12-22T09:40:31.168Z,30
2022-12-22T09:43:01.969Z,36
2022-12-22T09:45:32.687Z,29
2022-12-22T09:48:07.645Z,33
2022-12-22T09:50:32.752Z,39
2022-12-22T09:53:03.611Z,35
2022-12-22T09:55:34.250Z,38
2022-12-22T09:58:04.421Z,37
2022-12-22T10:00:34.613Z,34
2022-12-22T10:03:04.948Z,37
2022-12-22T10:05:35.762Z,32
2022-12-22T10:08:06.524Z,32
2022-12-22T10:10:37.039Z,30
2022-12-22T10:13:07.083Z,30
2022-12-22T10:15:37.326Z,34
2022-12-22T10:18:07.501Z,28
2022-12-22T10:20:37.806Z,37
2022-12-22T10:23:08.712Z,35
2022-12-22T10:26:17.043Z,29
2022-12-22T10:28:09.108Z,31
2022-12-22T10:30:39.725Z,33
2022-12-22T10:33:10.483Z,30
2022-12-22T10:35:40.944Z,38
2022-12-22T10:38:21.054Z,38
2022-12-22T10:40:41.453Z,31
2022-12-22T10:43:12.304Z,30
2022-12-22T10:45:43.162Z,31
2022-12-22T10:48:13.276Z,29
2022-12-22T10:50:43.383Z,27
2022-12-22T10:53:13.641Z,29
2022-12-22T10:55:44.560Z,27
2022-12-22T10:58:14.704Z,31
2022-12-22T11:00:45.258Z,24
2022-12-22T11:03:20.769Z,26
2022-12-22T11:05:46.063Z,24
2022-12-22T11:08:16.547Z,27
2022-12-22T11:10:46.932Z,29
2022-12-22T11:13:17.592Z,30
2022-12-22T11:15:48.137Z,30
2022-12-22T11:18:18.694Z,25
2022-12-22T11:20:48.936Z,23
2022-12-22T11:23:19.397Z,26
2022-12-22T11:25:49.731Z,24
2022-12-22T11:28:20.358Z,26
2022-12-22T11:30:51.236Z,26
2022-12-22T11:33:21.858Z,21
2022-12-22T11:35:52.599Z,19
2022-12-22T11:38:23.009Z,21
2022-12-22T11:40:53.508Z,20
2022-12-22T11:43:24.370Z,20
2022-12-22T11:45:54.455Z,26
2022-12-22T11:48:24.587Z,20
2022-12-22T11:51:01.293Z,24
2022-12-22T11:53:25.561Z,21
2022-12-22T11:55:55.976Z,27
2022-12-22T11:58:26.385Z,19
2022-12-22T12:01:14.099Z,18
2022-12-22T12:03:26.798Z,17
2022-12-22T12:05:57.179Z,24
2022-12-22T12:08:27.817Z,19
2022-12-22T12:10:58.378Z,20
2022-12-22T12:13:33.274Z,22
2022-12-22T12:15:58.928Z,20
2022-12-22T12:18:28.800Z,18
2022-12-22T12:20:59.423Z,21
2022-12-22T12:23:30.000Z,17
2022-12-22T12:26:00.476Z,18
2022-12-22T12:28:30.719Z,15
2022-12-22T12:31:01.123Z,16
2022-12-22T12:33:31.633Z,18
2022-12-22T12:36:02.032Z,22
2022-12-22T12:39:06.410Z,19
2022-12-22T12:41:02.633Z,19
2022-12-22T12:43:32.822Z,20
2022-12-22T12:46:03.211Z,16
2022-12-22T12:48:33.196Z,15
2022-12-22T12:51:03.804Z,16
2022-12-22T12:53:34.111Z,15
2022-12-22T12:56:04.760Z,18
2022-12-22T12:58:34.744Z,17
2022-12-22T13:01:05.185Z,12
2022-12-22T13:04:02.559Z,14
2022-12-22T13:06:05.713Z,12
2022-12-22T13:08:36.025Z,12
2022-12-22T13:11:06.675Z,11
2022-12-22T13:13:36.737Z,12
2022-12-22T13:16:07.159Z,15
2022-12-22T13:18:37.059Z,17
2022-12-22T13:21:42.491Z,13
2022-12-22T13:23:58.517Z,9
2022-12-22T13:26:08.679Z,11
2022-12-22T13:28:38.705Z,13
2022-12-22T13:31:09.107Z,12
2022-12-22T13:33:39.684Z,9
2022-12-22T13:36:10.030Z,11
2022-12-22T13:38:40.349Z,8
2022-12-22T13:41:11.006Z,11
2022-12-22T13:43:41.632Z,10
2022-12-22T13:46:11.957Z,11
2022-12-22T13:48:44.706Z,11
2022-12-22T13:51:12.950Z,11
2022-12-22T13:54:09.731Z,11
2022-12-22T13:56:13.950Z,11
2022-12-22T13:58:44.268Z,11
2022-12-22T14:01:14.552Z,10
2022-12-22T14:03:59.599Z,10
2022-12-22T14:06:15.666Z,11
2022-12-22T14:08:45.960Z,8
2022-12-22T14:11:16.572Z,9
2022-12-22T14:13:47.224Z,10
2022-12-22T14:16:17.900Z,9
2022-12-22T14:18:48.484Z,9
2022-12-22T14:21:19.177Z,8
2022-12-22T14:23:49.476Z,9
2022-12-22T14:26:19.855Z,8
2022-12-22T14:28:50.670Z,11
2022-12-22T14:31:21.080Z,13
2022-12-22T14:33:51.649Z,11
2022-12-22T14:36:22.597Z,12
2022-12-22T14:38:52.924Z,12
2022-12-22T14:41:23.490Z,10
2022-12-22T14:43:53.561Z,11
2022-12-22T14:46:24.281Z,12
2022-12-22T14:48:54.209Z,10
2022-12-22T14:51:24.876Z,10
2022-12-22T14:53:54.871Z,11
2022-12-22T14:56:25.505Z,11
2022-12-22T14:58:56.118Z,11
2022-12-22T15:01:26.981Z,9
2022-12-22T15:03:57.487Z,10
2022-12-22T15:06:28.057Z,10
2022-12-22T15:08:58.628Z,10
2022-12-22T15:11:28.777Z,14
2022-12-22T15:13:59.422Z,11
2022-12-22T15:16:29.570Z,9
2022-12-22T15:19:00.157Z,10
2022-12-22T15:21:30.773Z,11
2022-12-22T15:24:01.451Z,9
2022-12-22T15:26:37.638Z,9
2022-12-22T15:29:02.772Z,12
2022-12-22T15:31:33.542Z,10
2022-12-22T15:34:03.855Z,12
2022-12-22T15:36:33.856Z,10
2022-12-22T15:39:04.322Z,11
2022-12-22T15:41:34.570Z,13
2022-12-22T15:44:05.251Z,14
2022-12-22T15:46:35.752Z,17
2022-12-22T15:49:05.803Z,12
2022-12-22T15:51:36.221Z,16
2022-12-22T15:54:07.074Z,13
2022-12-22T15:56:37.437Z,22
2022-12-22T15:59:07.485Z,16
2022-12-22T16:01:37.814Z,20
2022-12-22T16:04:08.574Z,23
2022-12-22T16:06:39.093Z,17
2022-12-22T16:09:09.135Z,20
2022-12-22T16:11:39.251Z,20
2022-12-22T16:14:09.459Z,23
2022-12-22T16:16:40.123Z,24
2022-12-22T16:19:10.712Z,21
2022-12-22T16:21:41.138Z,22
2022-12-22T16:24:11.791Z,26
2022-12-22T16:26:41.869Z,27
2022-12-22T16:29:12.263Z,21
2022-12-22T16:31:42.603Z,26
2022-12-22T16:34:13.307Z,27
2022-12-22T16:36:43.755Z,21
2022-12-22T16:39:14.166Z,26
2022-12-22T16:41:44.489Z,24
2022-12-22T16:44:15.109Z,30
2022-12-22T16:46:45.687Z,28
2022-12-22T16:49:19.044Z,26
2022-12-22T16:51:46.541Z,29
2022-12-22T16:54:17.210Z,29
2022-12-22T16:56:47.863Z,28
2022-12-22T16:59:17.913Z,24
2022-12-22T17:01:48.629Z,25
2022-12-22T17:04:18.285Z,29
2022-12-22T17:06:48.427Z,27
2022-12-22T17:09:18.619Z,31
2022-12-22T17:11:48.921Z,25
2022-12-22T17:14:18.901Z,30
2022-12-22T17:16:49.627Z,28
2022-12-22T17:19:20.586Z,34
2022-12-22T17:21:50.398Z,27
2022-12-22T17:24:27.342Z,29
2022-12-22T17:26:50.760Z,34
2022-12-22T17:29:20.954Z,33
2022-12-22T17:31:51.707Z,32
2022-12-22T17:34:21.664Z,31
2022-12-22T17:36:52.347Z,29
2022-12-22T17:39:22.858Z,32
2022-12-22T17:41:57.041Z,31
2022-12-22T17:44:23.253Z,33
2022-12-22T17:46:54.031Z,39
2022-12-22T17:49:24.389Z,27
2022-12-22T17:51:54.413Z,34
2022-12-22T17:54:24.533Z,31
2022-12-22T17:56:54.911Z,32
2022-12-22T17:59:25.346Z,34
2022-12-22T18:01:56.177Z,34
2022-12-22T18:04:26.704Z,31
2022-12-22T18:06:57.036Z,31
2022-12-22T18:09:27.409Z,31
2022-12-22T18:11:58.050Z,32
2022-12-22T18:14:28.490Z,31
2022-12-22T18:16:58.691Z,37
2022-12-22T18:19:28.879Z,33
2022-12-22T18:24:29.925Z,30
2022-12-22T18:27:00.538Z,34
2022-12-22T18:29:30.464Z,39
2022-12-22T18:32:00.569Z,36
2022-12-22T18:34:30.577Z,34
2022-12-22T18:37:01.455Z,38
2022-12-22T18:39:31.926Z,34
2022-12-22T18:42:02.027Z,37
2022-12-22T18:44:32.909Z,36
2022-12-22T18:47:03.693Z,31
2022-12-22T18:49:33.908Z,37
2022-12-22T18:52:04.458Z,36
2022-12-22T18:54:35.257Z,33
2022-12-22T18:57:05.519Z,38
2022-12-22T18:59:35.938Z,34
2022-12-22T19:02:06.281Z,35
2022-12-22T19:04:36.212Z,35
2022-12-22T19:07:06.997Z,42
2022-12-22T19:09:37.086Z,37
2022-12-22T19:12:07.227Z,33
2022-12-22T19:14:37.757Z,37
2022-12-22T19:17:07.798Z,42
2022-12-22T19:19:37.901Z,37
2022-12-22T19:22:08.331Z,43
2022-12-22T19:24:38.901Z,32
2022-12-22T19:27:09.286Z,45
2022-12-22T19:29:39.442Z,41
2022-12-22T19:32:10.259Z,45
2022-12-22T19:34:40.785Z,41
2022-12-22T19:37:11.166Z,41
2022-12-22T19:39:41.924Z,46
2022-12-22T19:42:12.494Z,41
2022-12-22T19:44:42.818Z,39
2022-12-22T19:47:13.101Z,44
2022-12-22T19:49:43.253Z,41
2022-12-22T19:52:13.852Z,36
2022-12-22T19:54:43.880Z,37
2022-12-22T19:57:14.490Z,40
2022-12-22T19:59:44.990Z,36
2022-12-22T20:02:15.792Z,36
2022-12-22T20:04:45.884Z,41
2022-12-22T20:07:16.267Z,40
2022-12-22T20:09:46.882Z,41
2022-12-22T20:12:17.373Z,40
2022-12-22T20:14:48.174Z,40
2022-12-22T20:17:18.961Z,43
2022-12-22T20:19:49.601Z,33
2022-12-22T20:22:19.683Z,40
2022-12-22T20:24:50.340Z,36
2022-12-22T20:27:20.873Z,43
2022-12-22T20:29:51.631Z,40
2022-12-22T20:32:27.618Z,39
2022-12-22T20:34:52.328Z,46
2022-12-22T20:37:23.213Z,44
2022-12-22T20:39:53.636Z,44
2022-12-22T20:42:24.374Z,45
2022-12-22T20:45:02.773Z,44
2022-12-22T20:47:25.995Z,41
2022-12-22T20:49:56.018Z,40
2022-12-22T20:52:26.577Z,44
2022-12-22T20:54:57.294Z,42
2022-12-22T20:57:27.526Z,39
2022-12-22T20:59:58.070Z,39
2022-12-22T21:02:28.963Z,47
2022-12-22T21:04:58.617Z,40
2022-12-22T21:07:29.151Z,45
2022-12-22T21:09:59.914Z,45
2022-12-22T21:12:30.077Z,49
2022-12-22T21:15:00.475Z,44
2022-12-22T21:17:30.487Z,42
2022-12-22T21:20:01.111Z,41
2022-12-22T21:22:31.238Z,37
2022-12-22T21:25:01.970Z,44
2022-12-22T21:27:32.235Z,41
2022-12-22T21:30:02.785Z,46
2022-12-22T21:32:33.615Z,43
2022-12-22T21:35:08.077Z,42
2022-12-22T21:37:34.106Z,46
2022-12-22T21:40:04.476Z,40
2022-12-22T21:42:34.786Z,40
2022-12-22T21:45:05.354Z,36
2022-12-22T21:47:35.436Z,42
2022-12-22T21:50:06.211Z,42
2022-12-22T21:52:36.957Z,42
2022-12-22T21:55:07.321Z,36
2022-12-22T21:57:37.882Z,38
2022-12-22T22:00:08.046Z,37
2022-12-22T22:02:38.794Z,40
2022-12-22T22:05:09.027Z,37
2022-12-22T22:07:39.129Z,37
2022-12-22T22:10:09.895Z,37
2022-12-22T22:12:40.748Z,33
2022-12-22T22:15:11.164Z,37
2022-12-22T22:17:41.163Z,34
2022-12-22T22:20:11.365Z,34
2022-12-22T22:22:42.002Z,31
2022-12-22T22:25:12.171Z,35
2022-12-22T22:27:47.558Z,36
2022-12-22T22:30:12.674Z,35
2022-12-22T22:32:43.293Z,33
2022-12-22T22:35:13.485Z,31
2022-12-22T22:37:44.247Z,29
2022-12-22T22:40:14.302Z,28
2022-12-22T22:42:44.345Z,34
2022-12-22T22:45:14.921Z,33
2022-12-22T22:47:45.186Z,30
2022-12-22T22:50:15.356Z,26
2022-12-22T22:52:45.879Z,30
2022-12-22T22:55:16.244Z,27
2022-12-22T22:57:47.095Z,34
2022-12-22T23:00:17.171Z,30
2022-12-22T23:02:48.201Z,30
2022-12-22T23:05:22.706Z,29
2022-12-22T23:07:48.289Z,25
2022-12-22T23:10:19.162Z,37
2022-12-22T23:12:49.818Z,34
2022-12-22T23:15:20.394Z,33
2022-12-22T23:17:51.158Z,32
2022-12-22T23:20:21.801Z,35
2022-12-22T23:22:52.465Z,29
2022-12-22T23:25:22.897Z,30
2022-12-22T23:27:53.368Z,29
2022-12-22T23:30:23.445Z,33
2022-12-22T23:32:53.694Z,29
2022-12-22T23:35:23.993Z,34
2022-12-22T23:37:54.525Z,27
2022-12-22T23:40:51.010Z,30
2022-12-22T23:42:57.222Z,35
2022-12-22T23:45:25.879Z,35
2022-12-22T23:47:56.507Z,33
2022-12-22T23:50:26.535Z,35
2022-12-22T23:52:57.075Z,31
2022-12-22T23:55:27.459Z,32
2022-12-22T23:57:58.202Z,27
